Time;durP1;ratioP1;P1;durP2;ratioP2;P2;SDS_P1;SDS_P2;PMS_P1;PMS_P2;Temp;Humidity;BMP_temperature;BMP_pressure;BME280_temperature;BME280_humidity;BME280_pressure;Samples;Min_cycle;Max_cycle;Signal;HPM_P1;HPM_P2
2021/11/02 00:00:22;;;;;;;5.23;1.80;;;4.60;99.90;;;;;;2082716;28;20200;-62
2021/11/02 00:01:25;;;;;;;3.67;1.90;;;4.70;99.90;;;;;;2082987;28;20192;-63
2021/11/02 00:02:26;;;;;;;2.08;1.27;;;4.70;99.90;;;;;;2081106;28;20668;-63
2021/11/02 00:03:26;;;;;;;3.25;1.58;;;4.80;99.90;;;;;;2081217;28;20184;-62
2021/11/02 00:04:27;;;;;;;5.23;1.57;;;4.80;99.90;;;;;;2083052;28;20184;-63
2021/11/02 00:05:28;;;;;;;2.80;2.03;;;4.80;99.90;;;;;;2082545;28;20195;-62
2021/11/02 00:06:29;;;;;;;4.65;1.70;;;4.90;99.90;;;;;;2081476;28;20184;-62
2021/11/02 00:07:30;;;;;;;1.60;1.40;;;4.80;99.90;;;;;;2081504;28;20283;-61
2021/11/02 00:08:31;;;;;;;2.33;1.40;;;4.80;99.90;;;;;;2083881;28;20666;-62
2021/11/02 00:09:35;;;;;;;3.93;1.30;;;4.90;99.90;;;;;;2082104;28;20186;-61
2021/11/02 00:10:37;;;;;;;2.90;1.02;;;4.90;99.90;;;;;;2072277;28;20193;-60
2021/11/02 00:11:37;;;;;;;3.90;1.00;;;4.90;99.90;;;;;;2072701;28;20638;-62
2021/11/02 00:12:39;;;;;;;1.63;1.00;;;4.90;99.90;;;;;;2084646;28;20692;-62
2021/11/02 00:13:45;;;;;;;2.25;1.10;;;4.90;99.90;;;;;;2081684;28;20192;-64
2021/11/02 00:14:46;;;;;;;3.90;1.20;;;4.90;99.90;;;;;;2081042;28;20207;-65
2021/11/02 00:15:49;;;;;;;3.80;1.00;;;4.90;99.90;;;;;;2081200;28;20265;-65
2021/11/02 00:16:56;;;;;;;4.03;1.27;;;4.90;99.90;;;;;;2081029;28;20189;-65
2021/11/02 00:18:01;;;;;;;4.70;1.30;;;4.90;99.90;;;;;;2082005;28;20199;-64
2021/11/02 00:19:06;;;;;;;2.83;1.20;;;4.90;99.90;;;;;;2081964;28;20235;-65
2021/11/02 00:20:12;;;;;;;2.80;1.35;;;5.00;99.90;;;;;;2089389;28;20179;-65
2021/11/02 00:21:14;;;;;;;1.20;1.00;;;5.00;99.90;;;;;;2088581;28;20175;-65
2021/11/02 00:22:16;;;;;;;3.55;1.30;;;5.00;99.90;;;;;;2081299;28;20747;-65
2021/11/02 00:23:17;;;;;;;3.05;1.23;;;5.00;99.90;;;;;;2081955;28;20184;-64
2021/11/02 00:25:36;;;;;;;2.90;1.30;;;5.00;99.90;;;;;;2082060;28;20168;-66
2021/11/02 00:26:37;;;;;;;2.37;1.20;;;5.00;99.90;;;;;;2081736;28;20267;-65
2021/11/02 00:27:40;;;;;;;3.63;1.53;;;5.10;99.90;;;;;;2080974;28;20283;-66
2021/11/02 00:28:41;;;;;;;7.35;1.55;;;5.10;99.90;;;;;;2081063;28;20588;-66
2021/11/02 00:29:42;;;;;;;3.87;1.60;;;5.10;99.90;;;;;;2081203;28;20219;-66
2021/11/02 00:30:42;;;;;;;2.47;1.33;;;5.10;99.90;;;;;;2080995;28;20184;-66
2021/11/02 00:31:43;;;;;;;4.30;1.50;;;5.10;99.90;;;;;;2081611;28;20613;-65
2021/11/02 00:32:47;;;;;;;2.45;1.40;;;5.10;99.90;;;;;;2081234;28;20577;-65
2021/11/02 00:33:48;;;;;;;3.50;1.48;;;5.10;99.90;;;;;;2081019;28;20184;-66
2021/11/02 00:34:48;;;;;;;4.67;1.37;;;5.10;99.90;;;;;;2081721;28;20188;-65
2021/11/02 00:35:50;;;;;;;4.00;1.20;;;5.10;99.90;;;;;;2081814;28;20345;-65
2021/11/02 00:36:50;;;;;;;4.95;1.45;;;5.20;99.90;;;;;;2081875;28;20235;-65
2021/11/02 00:37:52;;;;;;;3.57;1.73;;;5.20;99.90;;;;;;2081737;28;20219;-66
2021/11/02 00:38:53;;;;;;;2.25;1.23;;;5.20;99.90;;;;;;2081617;28;20179;-66
2021/11/02 00:39:54;;;;;;;2.23;1.33;;;5.20;99.90;;;;;;2081726;28;20662;-65
2021/11/02 00:40:54;;;;;;;5.80;1.50;;;5.20;99.90;;;;;;2081881;28;20188;-65
2021/11/02 00:41:55;;;;;;;2.30;1.10;;;5.20;99.90;;;;;;2081446;28;20644;-66
2021/11/02 00:42:59;;;;;;;4.90;1.40;;;5.20;99.90;;;;;;2081642;28;20215;-65
2021/11/02 00:44:00;;;;;;;3.55;1.40;;;5.20;99.90;;;;;;2081608;28;20181;-66
2021/11/02 00:45:03;;;;;;;5.60;1.17;;;5.20;99.90;;;;;;2081761;28;20542;-66
2021/11/02 00:46:04;;;;;;;3.20;1.00;;;5.20;99.90;;;;;;2081568;28;20182;-66
2021/11/02 00:47:05;;;;;;;3.47;1.38;;;5.20;99.90;;;;;;2081611;28;20280;-67
2021/11/02 00:48:12;;;;;;;2.38;1.23;;;5.20;99.90;;;;;;2081636;28;20241;-65
2021/11/02 00:49:17;;;;;;;2.92;1.20;;;5.30;99.90;;;;;;2081729;28;20563;-65
2021/11/02 00:50:18;;;;;;;4.60;1.20;;;5.30;99.90;;;;;;2081472;28;20701;-66
2021/11/02 00:51:19;;;;;;;1.75;1.05;;;5.30;99.90;;;;;;2081423;28;20528;-67
2021/11/02 00:52:20;;;;;;;1.30;0.80;;;5.30;99.90;;;;;;2081654;28;20184;-67
2021/11/02 00:53:22;;;;;;;3.88;1.10;;;5.30;99.90;;;;;;2081683;28;20649;-66
2021/11/02 00:54:23;;;;;;;4.43;1.55;;;5.30;99.90;;;;;;2081529;28;20555;-66
2021/11/02 00:55:24;;;;;;;1.13;1.03;;;5.30;99.90;;;;;;2081667;28;20182;-66
2021/11/02 00:56:25;;;;;;;2.73;1.27;;;5.30;99.90;;;;;;2081565;28;20204;-66
2021/11/02 00:57:25;;;;;;;4.50;1.50;;;5.30;99.90;;;;;;2081661;28;20946;-66
2021/11/02 00:58:26;;;;;;;3.23;1.00;;;5.30;99.90;;;;;;2081713;28;20238;-67
2021/11/02 00:59:27;;;;;;;4.10;1.33;;;5.30;99.90;;;;;;2081527;28;20176;-66
2021/11/02 01:00:28;;;;;;;4.53;1.00;;;5.20;99.90;;;;;;2081521;28;20208;-67
2021/11/02 01:01:29;;;;;;;2.38;1.10;;;5.20;99.90;;;;;;2081284;28;20260;-66
2021/11/02 01:02:30;;;;;;;4.17;1.00;;;5.20;99.90;;;;;;2081467;28;20212;-66
2021/11/02 01:03:31;;;;;;;2.67;1.07;;;5.20;99.90;;;;;;2081599;28;20666;-66
2021/11/02 01:04:32;;;;;;;1.90;0.90;;;5.20;99.90;;;;;;2081479;28;20180;-66
2021/11/02 01:05:34;;;;;;;1.57;1.00;;;5.20;99.90;;;;;;2081553;28;20180;-67
2021/11/02 01:06:36;;;;;;;4.07;1.10;;;5.20;99.90;;;;;;2081458;28;20260;-67
2021/11/02 01:07:37;;;;;;;3.38;1.20;;;5.20;99.90;;;;;;2081594;28;20200;-66
2021/11/02 01:08:38;;;;;;;2.08;1.23;;;5.20;99.90;;;;;;2081469;28;20179;-67
2021/11/02 01:09:40;;;;;;;3.03;1.00;;;5.20;99.90;;;;;;2081456;28;20184;-67
2021/11/02 01:10:46;;;;;;;1.52;1.10;;;5.20;99.90;;;;;;2081383;28;20223;-66
2021/11/02 01:11:47;;;;;;;3.13;0.90;;;5.20;99.90;;;;;;2081549;28;20168;-67
2021/11/02 01:12:51;;;;;;;1.83;0.87;;;5.20;99.90;;;;;;2081534;28;20189;-66
2021/11/02 01:13:52;;;;;;;2.38;1.00;;;5.20;99.90;;;;;;2081565;28;20192;-66
2021/11/02 01:14:53;;;;;;;4.10;1.05;;;5.20;99.90;;;;;;2081334;28;20185;-66
2021/11/02 01:15:53;;;;;;;3.60;1.03;;;5.20;99.90;;;;;;2081239;28;20184;-67
2021/11/02 01:16:54;;;;;;;1.97;0.93;;;5.20;99.90;;;;;;2081312;28;20193;-66
2021/11/02 01:17:56;;;;;;;1.73;1.20;;;5.20;99.90;;;;;;2081545;28;20195;-66
2021/11/02 01:18:57;;;;;;;3.22;1.10;;;5.10;99.90;;;;;;2081320;28;20262;-67
2021/11/02 01:19:57;;;;;;;4.87;1.10;;;5.10;99.90;;;;;;2081361;28;20659;-67
2021/11/02 01:20:58;;;;;;;2.73;0.97;;;5.00;99.90;;;;;;2081232;28;20233;-67
2021/11/02 01:21:59;;;;;;;2.53;0.83;;;5.00;99.90;;;;;;2081208;28;20180;-67
2021/11/02 01:23:00;;;;;;;2.25;0.90;;;4.90;99.90;;;;;;2081212;28;20215;-67
2021/11/02 01:24:01;;;;;;;4.03;1.10;;;4.90;99.90;;;;;;2081447;28;20184;-66
2021/11/02 01:25:02;;;;;;;4.63;1.10;;;4.90;99.90;;;;;;2081247;28;20190;-67
2021/11/02 01:26:03;;;;;;;2.22;0.90;;;4.90;99.90;;;;;;2081414;28;20257;-66
2021/11/02 01:27:04;;;;;;;1.67;0.80;;;4.80;99.90;;;;;;2081171;28;20670;-66
2021/11/02 01:28:05;;;;;;;1.35;0.80;;;4.80;99.90;;;;;;2081322;28;20552;-67
2021/11/02 01:29:06;;;;;;;2.57;0.90;;;4.80;99.90;;;;;;2081320;28;20269;-67
2021/11/02 01:30:09;;;;;;;1.97;0.90;;;4.80;99.90;;;;;;2081401;28;20203;-67
2021/11/02 01:31:10;;;;;;;3.00;0.85;;;4.80;99.90;;;;;;2081143;28;20238;-66
2021/11/02 01:32:10;;;;;;;1.10;0.80;;;4.70;99.90;;;;;;2081339;28;20310;-67
2021/11/02 01:33:11;;;;;;;2.30;0.90;;;4.70;99.90;;;;;;2081363;28;20666;-66
2021/11/02 01:34:12;;;;;;;3.80;0.87;;;4.80;99.90;;;;;;2081337;28;20180;-67
2021/11/02 01:35:14;;;;;;;2.78;0.90;;;4.80;99.90;;;;;;2081324;28;20264;-66
2021/11/02 01:36:16;;;;;;;5.15;1.52;;;4.70;99.90;;;;;;2081270;28;20184;-67
2021/11/02 01:37:16;;;;;;;1.17;0.80;;;4.70;99.90;;;;;;2081029;28;20250;-67
2021/11/02 01:38:21;;;;;;;0.70;0.70;;;4.70;99.90;;;;;;2081275;28;20183;-66
2021/11/02 01:39:21;;;;;;;1.92;0.90;;;4.70;99.90;;;;;;2081303;28;20530;-67
2021/11/02 01:40:22;;;;;;;1.53;0.70;;;4.70;99.90;;;;;;2081336;28;20227;-67
2021/11/02 01:41:25;;;;;;;0.73;0.60;;;4.70;99.90;;;;;;2080597;28;20175;-66
2021/11/02 01:42:27;;;;;;;0.98;0.73;;;4.70;99.90;;;;;;2081202;28;20180;-67
2021/11/02 01:43:28;;;;;;;2.10;0.70;;;4.70;99.90;;;;;;2081180;28;20195;-66
2021/11/02 01:44:30;;;;;;;1.53;0.70;;;4.70;99.90;;;;;;2080736;28;20662;-67
2021/11/02 01:45:31;;;;;;;0.85;0.70;;;4.70;99.90;;;;;;2081162;28;20346;-67
2021/11/02 01:46:35;;;;;;;3.60;0.87;;;4.70;99.90;;;;;;2081332;28;20187;-66
2021/11/02 01:47:44;;;;;;;0.75;0.60;;;4.70;99.90;;;;;;2081083;28;20982;-67
2021/11/02 01:48:45;;;;;;;1.33;0.60;;;4.70;99.90;;;;;;2081295;28;20177;-67
2021/11/02 01:49:47;;;;;;;2.22;0.80;;;4.80;99.90;;;;;;2080460;28;20191;-66
2021/11/02 01:50:48;;;;;;;3.20;0.80;;;4.80;99.90;;;;;;2080603;28;20164;-66
2021/11/02 01:51:50;;;;;;;1.70;0.63;;;4.80;99.90;;;;;;2081031;28;20184;-67
2021/11/02 01:52:50;;;;;;;1.38;0.77;;;4.80;99.90;;;;;;2081223;28;20244;-67
2021/11/02 01:53:52;;;;;;;0.77;0.63;;;4.90;99.90;;;;;;2081276;28;20399;-67
2021/11/02 01:54:53;;;;;;;1.80;0.70;;;4.80;99.90;;;;;;2081350;28;20194;-67
2021/11/02 01:55:53;;;;;;;2.07;0.53;;;4.90;99.90;;;;;;2081212;28;20183;-66
2021/11/02 01:56:54;;;;;;;1.23;0.60;;;4.90;99.90;;;;;;2081225;28;20185;-67
2021/11/02 01:57:55;;;;;;;2.20;0.80;;;4.90;99.90;;;;;;2081356;28;20234;-67
2021/11/02 01:58:56;;;;;;;1.23;0.63;;;4.90;99.90;;;;;;2081205;28;20192;-66
2021/11/02 01:59:57;;;;;;;1.30;0.70;;;4.90;99.90;;;;;;2081227;28;20424;-67
2021/11/02 02:01:00;;;;;;;1.45;0.65;;;5.00;99.90;;;;;;2081103;28;20655;-67
2021/11/02 02:02:09;;;;;;;1.65;0.75;;;5.00;99.90;;;;;;2080470;28;20237;-67
2021/11/02 02:03:32;;;;;;;1.10;0.75;;;5.00;99.90;;;;;;2080383;28;20357;-67
2021/11/02 02:05:08;;;;;;;1.40;0.75;;;5.00;99.90;;;;;;2082539;28;20185;-67
2021/11/02 02:06:27;;;;;;;0.80;0.65;;;5.00;99.90;;;;;;2080661;28;20179;-67
2021/11/02 02:07:45;;;;;;;1.98;0.73;;;5.00;99.90;;;;;;2080759;28;20707;-67
2021/11/02 02:09:02;;;;;;;1.67;0.80;;;5.00;99.90;;;;;;2080493;28;20179;-67
2021/11/02 02:10:15;;;;;;;1.75;0.88;;;5.00;99.90;;;;;;2080710;28;20164;-66
2021/11/02 02:11:51;;;;;;;1.20;0.70;;;5.10;99.90;;;;;;2080958;28;20177;-67
2021/11/02 02:13:01;;;;;;;1.58;0.70;;;5.00;99.90;;;;;;2081075;28;20195;-67
2021/11/02 02:14:18;;;;;;;2.88;0.80;;;5.00;99.90;;;;;;2081307;28;20176;-66
2021/11/02 02:15:27;;;;;;;4.10;0.90;;;5.10;99.90;;;;;;2080563;28;20169;-66
2021/11/02 02:16:38;;;;;;;0.95;0.77;;;5.10;99.90;;;;;;2073701;28;20173;-67
2021/11/02 02:17:57;;;;;;;3.20;0.90;;;5.10;99.90;;;;;;2080515;28;20261;-66
2021/11/02 02:19:51;;;;;;;1.50;0.90;;;5.00;99.90;;;;;;2080615;28;20176;-66
2021/11/02 02:21:25;;;;;;;3.70;0.80;;;5.10;99.90;;;;;;2080911;28;20253;-67
2021/11/02 02:23:12;;;;;;;1.60;0.80;;;5.10;99.90;;;;;;2080554;28;20202;-66
2021/11/02 02:24:40;;;;;;;1.83;1.00;;;5.10;99.90;;;;;;2081052;28;20492;-66
2021/11/02 02:25:55;;;;;;;7.28;1.30;;;5.10;99.90;;;;;;2080428;28;20197;-65
2021/11/02 02:27:36;;;;;;;2.38;1.20;;;5.10;99.90;;;;;;2074414;28;20183;-66
2021/11/02 02:28:39;;;;;;;1.65;1.13;;;5.10;99.90;;;;;;2081078;28;20176;-66
2021/11/02 02:29:43;;;;;;;2.47;1.27;;;5.10;99.90;;;;;;2080464;28;20190;-66
2021/11/02 02:31:05;;;;;;;2.92;1.63;;;5.10;99.90;;;;;;2072795;28;20599;-66
2021/11/02 02:32:10;;;;;;;1.70;1.17;;;5.10;99.90;;;;;;2075255;28;20649;-67
2021/11/02 02:33:11;;;;;;;1.25;1.15;;;5.10;99.90;;;;;;2080757;28;20193;-66
2021/11/02 02:34:15;;;;;;;4.07;1.30;;;5.10;99.90;;;;;;2080459;28;20180;-66
2021/11/02 02:35:22;;;;;;;1.50;1.30;;;5.10;99.90;;;;;;2072883;28;20280;-67
2021/11/02 02:36:26;;;;;;;1.95;1.52;;;5.10;99.90;;;;;;2073290;28;20265;-65
2021/11/02 02:37:29;;;;;;;3.05;1.80;;;5.10;99.90;;;;;;2073349;28;20691;-66
2021/11/02 02:38:34;;;;;;;3.05;1.45;;;5.00;99.90;;;;;;2072770;28;20185;-66
2021/11/02 02:39:36;;;;;;;2.55;1.55;;;5.00;99.90;;;;;;2080774;28;20241;-66
2021/11/02 02:40:40;;;;;;;5.85;1.77;;;5.00;99.90;;;;;;2081078;28;20185;-65
2021/11/02 02:41:42;;;;;;;3.70;2.10;;;5.00;99.90;;;;;;2080769;28;20553;-66
2021/11/02 02:42:46;;;;;;;2.95;1.60;;;5.00;99.90;;;;;;2080376;28;20217;-67
2021/11/02 02:43:48;;;;;;;2.90;1.80;;;5.00;99.90;;;;;;2072741;28;20204;-67
2021/11/02 02:44:50;;;;;;;2.13;1.50;;;5.00;99.90;;;;;;2080482;28;20263;-66
2021/11/02 02:45:53;;;;;;;2.13;1.30;;;5.00;99.90;;;;;;2081046;28;20176;-66
2021/11/02 02:46:54;;;;;;;2.33;1.40;;;5.00;99.90;;;;;;2080208;28;20192;-66
2021/11/02 02:47:55;;;;;;;4.57;1.67;;;5.00;99.90;;;;;;2080551;28;20184;-66
2021/11/02 02:48:57;;;;;;;3.45;1.60;;;5.00;99.90;;;;;;2080380;28;20181;-67
2021/11/02 02:49:59;;;;;;;3.35;1.50;;;5.00;99.90;;;;;;2080483;28;20266;-66
2021/11/02 02:51:01;;;;;;;3.40;1.63;;;5.00;99.90;;;;;;2080871;28;20223;-67
2021/11/02 02:52:03;;;;;;;2.03;1.83;;;5.00;99.90;;;;;;2080913;28;20206;-66
2021/11/02 02:53:04;;;;;;;2.95;1.70;;;5.00;99.90;;;;;;2080238;28;20667;-66
2021/11/02 02:54:06;;;;;;;4.45;1.73;;;5.00;99.90;;;;;;2080313;28;20669;-66
2021/11/02 02:55:09;;;;;;;4.82;1.77;;;4.90;99.90;;;;;;2080449;28;20188;-66
2021/11/02 02:56:11;;;;;;;3.25;1.77;;;4.90;99.90;;;;;;2072725;28;20260;-66
2021/11/02 02:57:14;;;;;;;4.03;1.80;;;5.00;99.90;;;;;;2073595;28;20216;-66
2021/11/02 02:58:15;;;;;;;2.45;1.75;;;5.00;99.90;;;;;;2073940;28;20189;-66
2021/11/02 02:59:20;;;;;;;3.03;1.98;;;5.00;99.90;;;;;;2073957;28;20583;-66
2021/11/02 03:00:21;;;;;;;4.45;1.95;;;4.90;99.90;;;;;;2082169;28;20184;-65
2021/11/02 03:01:22;;;;;;;4.03;1.90;;;4.90;99.90;;;;;;2081711;28;20507;-66
2021/11/02 03:02:30;;;;;;;3.70;1.73;;;4.90;99.90;;;;;;2073802;28;20745;-66
2021/11/02 03:03:32;;;;;;;1.83;1.42;;;4.80;99.90;;;;;;2081797;28;20531;-67
2021/11/02 03:04:34;;;;;;;3.10;1.98;;;4.80;99.90;;;;;;2081883;28;20263;-66
2021/11/02 03:05:35;;;;;;;3.97;1.83;;;4.80;99.90;;;;;;2073839;28;20619;-67
2021/11/02 03:06:45;;;;;;;5.00;1.50;;;4.80;99.90;;;;;;2073893;28;20184;-66
2021/11/02 03:07:54;;;;;;;4.90;1.70;;;4.80;99.90;;;;;;2082131;28;20180;-66
2021/11/02 03:08:55;;;;;;;4.35;2.22;;;4.80;99.90;;;;;;2081719;28;20252;-67
2021/11/02 03:09:55;;;;;;;3.80;1.90;;;4.80;99.90;;;;;;2074330;28;20622;-67
2021/11/02 03:10:57;;;;;;;5.47;1.83;;;4.80;99.90;;;;;;2081826;28;20567;-67
2021/11/02 03:12:02;;;;;;;3.20;1.80;;;4.80;99.90;;;;;;2081724;28;20254;-66
2021/11/02 03:13:12;;;;;;;2.55;1.73;;;4.80;99.90;;;;;;2074302;28;20262;-66
2021/11/02 03:14:21;;;;;;;3.70;1.63;;;4.80;99.90;;;;;;2075000;28;20209;-67
2021/11/02 03:18:02;;;;;;;3.15;2.08;;;4.80;99.90;;;;;;2082380;28;20207;-66
2021/11/02 03:50:39;;;;;;;3.03;1.85;;;3.80;99.90;;;;;;2075616;28;20663;-67
2021/11/02 03:55:24;;;;;;;2.60;1.70;;;4.00;99.90;;;;;;2081480;28;20166;-66
2021/11/02 03:57:56;;;;;;;5.70;2.20;;;4.10;99.90;;;;;;2081534;28;20617;-66
2021/11/02 04:31:51;;;;;;;3.65;2.40;;;3.80;99.90;;;;;;2081450;28;20245;-66
2021/11/02 04:36:57;;;;;;;4.72;2.30;;;3.70;99.90;;;;;;2076748;28;20179;-65
2021/11/02 04:38:09;;;;;;;2.65;1.85;;;3.60;99.90;;;;;;2071089;28;20229;-65
2021/11/02 05:09:42;;;;;;;7.55;3.17;;;3.80;99.90;;;;;;2080865;28;20190;-66
2021/11/02 05:46:36;;;;;;;2.60;2.03;;;3.60;99.90;;;;;;2077688;28;20171;-65
2021/11/02 05:49:12;;;;;;;3.78;1.73;;;3.30;99.90;;;;;;2081137;28;20166;-66
2021/11/02 05:52:41;;;;;;;2.63;1.67;;;3.20;99.90;;;;;;2081333;28;20637;-65
2021/11/02 05:56:32;;;;;;;3.85;2.20;;;3.00;99.90;;;;;;2081321;28;20252;-65
2021/11/02 05:59:49;;;;;;;3.65;2.03;;;3.00;99.90;;;;;;2081142;28;20191;-65
2021/11/02 06:01:01;;;;;;;3.50;2.08;;;3.00;99.90;;;;;;2081087;28;20170;-65
2021/11/02 06:05:50;;;;;;;2.70;2.33;;;2.90;99.90;;;;;;2081041;28;20712;-65
2021/11/02 06:09:00;;;;;;;2.47;2.13;;;2.90;99.90;;;;;;2081258;28;20620;-65
2021/11/02 06:23:20;;;;;;;1.75;1.58;;;2.90;99.90;;;;;;2080484;28;20182;-65
2021/11/02 06:27:46;;;;;;;4.93;2.38;;;2.90;99.90;;;;;;2080974;28;20683;-65
2021/11/02 06:28:49;;;;;;;12.30;2.25;;;2.90;99.90;;;;;;2081156;28;20249;-66
2021/11/02 06:29:52;;;;;;;21.88;3.20;;;2.90;99.90;;;;;;2081087;28;20291;-65
2021/11/02 06:31:05;;;;;;;19.90;2.60;;;2.90;99.90;;;;;;2081081;28;20204;-64
2021/11/02 06:32:17;;;;;;;26.48;3.03;;;2.90;99.90;;;;;;2082316;28;20199;-65
2021/11/02 06:33:40;;;;;;;28.55;4.63;;;3.00;99.90;;;;;;2082656;28;20170;-64
2021/11/02 06:37:19;;;;;;;78.63;6.10;;;3.00;99.90;;;;;;2082744;28;20196;-65
2021/11/02 06:42:49;;;;;;;56.33;4.65;;;3.10;99.90;;;;;;2082604;28;20577;-65
2021/11/02 06:45:41;;;;;;;74.93;7.30;;;3.20;99.90;;;;;;2082579;28;20636;-65
2021/11/02 06:52:56;;;;;;;48.30;6.75;;;3.40;99.90;;;;;;2082103;28;20179;-66
2021/11/02 07:10:53;;;;;;;5.28;2.50;;;3.50;99.90;;;;;;2082130;28;20185;-66
2021/11/02 07:15:51;;;;;;;7.40;3.65;;;3.80;99.90;;;;;;2082311;28;20174;-66
2021/11/02 07:19:04;;;;;;;2.50;1.67;;;4.10;99.90;;;;;;2081716;28;20173;-66
2021/11/02 07:21:19;;;;;;;2.85;1.90;;;4.10;99.90;;;;;;2081836;28;20166;-67
2021/11/02 07:22:32;;;;;;;2.40;2.10;;;4.20;99.90;;;;;;2082456;28;20188;-67
2021/11/02 07:23:47;;;;;;;2.70;1.92;;;4.20;99.90;;;;;;2082465;28;20181;-67
2021/11/02 08:46:29;;;;;;;1.40;1.00;;;5.70;99.90;;;;;;2081300;28;20165;-65
2021/11/02 08:47:45;;;;;;;1.48;0.95;;;5.80;99.90;;;;;;2081692;28;20204;-65
2021/11/02 08:48:52;;;;;;;2.40;1.17;;;5.70;99.90;;;;;;2081807;28;20165;-66
2021/11/02 08:49:53;;;;;;;1.40;1.17;;;5.70;99.90;;;;;;2080717;28;20162;-65
2021/11/02 08:50:56;;;;;;;2.43;1.10;;;5.60;99.90;;;;;;2081044;28;20169;-65
2021/11/02 08:51:58;;;;;;;1.40;1.17;;;5.60;99.90;;;;;;2080893;28;20181;-66
2021/11/02 08:53:05;;;;;;;1.25;1.10;;;5.50;99.90;;;;;;2081649;28;20193;-66
2021/11/02 08:54:06;;;;;;;3.40;1.00;;;5.50;99.90;;;;;;2080812;28;20177;-65
2021/11/02 08:55:09;;;;;;;1.35;1.10;;;5.50;99.90;;;;;;2081209;28;20192;-65
2021/11/02 08:56:15;;;;;;;1.08;0.95;;;5.60;99.90;;;;;;2081472;28;20283;-65
2021/11/02 08:57:19;;;;;;;1.15;0.98;;;5.60;99.90;;;;;;2081691;28;20213;-66
2021/11/02 08:58:29;;;;;;;1.30;0.90;;;5.70;99.90;;;;;;2081188;28;20185;-65
2021/11/02 08:59:33;;;;;;;2.38;1.02;;;5.80;99.90;;;;;;2081588;28;20181;-65
2021/11/02 09:00:39;;;;;;;1.83;1.05;;;5.90;99.90;;;;;;2081345;28;20263;-65
2021/11/02 09:01:40;;;;;;;2.17;1.00;;;5.90;99.90;;;;;;2080324;28;20165;-66
2021/11/02 09:02:47;;;;;;;4.15;1.27;;;6.00;99.90;;;;;;2072552;28;20182;-66
2021/11/02 09:03:54;;;;;;;1.48;0.88;;;6.00;99.90;;;;;;2080870;28;20173;-65
2021/11/02 09:05:11;;;;;;;2.45;1.33;;;5.90;99.90;;;;;;2080855;28;20176;-66
2021/11/02 09:06:15;;;;;;;1.33;1.05;;;6.00;99.90;;;;;;2081141;28;20227;-66
2021/11/02 09:07:23;;;;;;;0.98;0.85;;;6.00;99.90;;;;;;2081350;28;20200;-66
2021/11/02 09:08:28;;;;;;;1.10;1.00;;;6.00;99.90;;;;;;2081310;28;20621;-65
2021/11/02 09:09:40;;;;;;;1.50;1.08;;;6.00;99.90;;;;;;2081462;28;20165;-66
2021/11/02 09:10:42;;;;;;;3.90;1.10;;;6.00;99.90;;;;;;2081410;28;20176;-66
2021/11/02 09:11:45;;;;;;;1.92;0.82;;;6.10;99.90;;;;;;2080223;28;20177;-65
2021/11/02 09:12:50;;;;;;;1.30;1.00;;;6.10;99.90;;;;;;2080669;28;20181;-66
2021/11/02 09:13:54;;;;;;;1.48;1.10;;;6.20;99.90;;;;;;2081434;28;20185;-65
2021/11/02 09:14:56;;;;;;;0.98;0.88;;;6.30;99.90;;;;;;2081191;28;20325;-65
2021/11/02 09:16:02;;;;;;;1.35;1.05;;;6.40;99.90;;;;;;2080683;28;20188;-66
2021/11/02 09:17:06;;;;;;;1.67;1.10;;;6.50;99.90;;;;;;2080723;28;20185;-65
2021/11/02 09:18:10;;;;;;;1.60;1.20;;;6.50;99.90;;;;;;2081586;28;20383;-65
2021/11/02 09:19:13;;;;;;;1.38;1.23;;;6.50;99.50;;;;;;2081263;28;20558;-65
2021/11/02 09:20:16;;;;;;;2.17;1.50;;;6.50;99.90;;;;;;2081405;28;20675;-65
2021/11/02 09:21:18;;;;;;;1.67;1.30;;;6.50;99.90;;;;;;2080782;28;20176;-65
2021/11/02 09:22:19;;;;;;;1.30;1.20;;;6.50;99.70;;;;;;2081370;28;20202;-66
2021/11/02 09:23:20;;;;;;;2.07;1.30;;;6.50;99.90;;;;;;2081158;28;20292;-65
2021/11/02 09:24:23;;;;;;;2.40;1.10;;;6.40;99.60;;;;;;2081435;28;20173;-65
2021/11/02 09:25:24;;;;;;;1.10;0.98;;;6.40;99.70;;;;;;2081318;28;20204;-65
2021/11/02 09:26:25;;;;;;;2.45;1.13;;;6.50;99.90;;;;;;2081339;28;20209;-65
2021/11/02 09:27:27;;;;;;;1.90;0.90;;;6.40;99.10;;;;;;2080612;28;20236;-65
2021/11/02 09:28:28;;;;;;;1.48;1.00;;;6.40;99.90;;;;;;2080723;28;20177;-66
2021/11/02 09:29:30;;;;;;;1.33;1.23;;;6.40;99.90;;;;;;2081128;28;20184;-65
2021/11/02 09:30:31;;;;;;;1.30;1.00;;;6.50;99.90;;;;;;2080737;28;20252;-66
2021/11/02 09:31:33;;;;;;;3.38;1.00;;;6.40;97.80;;;;;;2079883;28;20208;-65
2021/11/02 09:32:37;;;;;;;0.98;0.70;;;6.40;99.20;;;;;;2081251;28;20714;-65
2021/11/02 09:33:37;;;;;;;0.63;0.60;;;6.40;98.20;;;;;;2081252;28;20189;-65
2021/11/02 09:34:38;;;;;;;1.73;0.80;;;6.40;97.60;;;;;;2081330;28;20181;-65
2021/11/02 09:35:39;;;;;;;0.80;0.60;;;6.40;98.40;;;;;;2081258;28;20169;-65
2021/11/02 09:37:07;;;;;;;2.17;0.70;;;6.40;99.40;;;;;;2081305;28;20180;-65
2021/11/02 09:38:30;;;;;;;1.60;0.80;;;6.40;99.50;;;;;;2081145;28;20189;-65
2021/11/02 09:39:40;;;;;;;0.70;0.50;;;6.50;99.10;;;;;;2081364;28;20169;-65
2021/11/02 09:41:23;;;;;;;0.57;0.57;;;6.50;98.10;;;;;;2081389;28;20241;-66
2021/11/02 09:42:47;;;;;;;0.52;0.38;;;6.50;97.30;;;;;;2081149;28;20177;-66
2021/11/02 09:43:57;;;;;;;0.50;0.50;;;6.40;96.90;;;;;;2080559;28;20173;-65
2021/11/02 09:45:36;;;;;;;0.35;0.35;;;6.30;98.50;;;;;;2080589;28;20181;-65
2021/11/02 09:47:29;;;;;;;0.82;0.40;;;6.10;97.80;;;;;;2080539;28;20193;-65
2021/11/02 09:49:29;;;;;;;0.32;0.30;;;6.00;98.80;;;;;;2080925;28;20548;-65
2021/11/02 09:51:27;;;;;;;0.88;0.50;;;5.90;99.60;;;;;;2072848;28;20235;-65
2021/11/02 09:52:55;;;;;;;0.28;0.28;;;6.00;99.40;;;;;;2072210;28;20208;-65
2021/11/02 09:54:13;;;;;;;0.55;0.30;;;6.00;99.20;;;;;;2072794;28;20174;-65
2021/11/02 09:55:59;;;;;;;0.45;0.40;;;6.00;99.20;;;;;;2072867;28;20189;-65
2021/11/02 09:57:14;;;;;;;0.43;0.40;;;6.10;99.90;;;;;;2072798;28;20200;-65
2021/11/02 09:58:53;;;;;;;0.70;0.30;;;6.30;99.80;;;;;;2072986;28;20272;-65
2021/11/02 10:00:44;;;;;;;2.08;0.30;;;6.40;97.90;;;;;;2075612;28;20219;-65
2021/11/02 10:02:16;;;;;;;0.20;0.20;;;6.40;98.90;;;;;;2071187;28;20247;-65
2021/11/02 10:03:31;;;;;;;0.40;0.32;;;6.40;98.10;;;;;;2071632;28;20202;-66
2021/11/02 10:05:12;;;;;;;0.45;0.40;;;6.40;98.90;;;;;;2072702;28;20603;-66
2021/11/02 10:07:05;;;;;;;0.30;0.30;;;6.50;99.10;;;;;;2074911;28;20728;-66
2021/11/02 10:08:19;;;;;;;1.27;0.30;;;6.50;98.90;;;;;;2075514;28;20180;-66
2021/11/02 10:10:02;;;;;;;0.40;0.40;;;6.60;98.40;;;;;;2075542;28;20775;-65
2021/11/02 10:11:28;;;;;;;0.60;0.30;;;6.70;97.40;;;;;;2075064;28;20570;-65
2021/11/02 10:12:49;;;;;;;0.20;0.20;;;6.70;98.90;;;;;;2075100;28;20189;-65
2021/11/02 10:14:13;;;;;;;0.50;0.47;;;6.70;96.70;;;;;;2075205;28;20181;-65
2021/11/02 10:15:48;;;;;;;0.38;0.30;;;6.60;97.70;;;;;;2074751;28;20221;-65
2021/11/02 10:17:54;;;;;;;0.20;0.20;;;6.50;98.20;;;;;;2075608;28;20179;-65
2021/11/02 10:19:37;;;;;;;0.30;0.22;;;6.60;97.60;;;;;;2082933;28;20326;-66
2021/11/02 10:21:02;;;;;;;0.25;0.25;;;6.50;97.60;;;;;;2078209;28;20172;-66
2021/11/02 10:22:21;;;;;;;0.32;0.32;;;6.50;98.10;;;;;;2075412;28;20173;-65
2021/11/02 10:23:59;;;;;;;0.20;0.20;;;6.70;99.70;;;;;;2075635;28;20205;-65
2021/11/02 10:25:15;;;;;;;1.77;0.40;;;6.80;97.80;;;;;;2075685;28;20259;-66
2021/11/02 10:26:40;;;;;;;0.38;0.25;;;6.80;98.00;;;;;;2075637;28;20188;-65
2021/11/02 10:28:14;;;;;;;0.60;0.40;;;6.80;98.00;;;;;;2075496;28;20204;-66
2021/11/02 10:30:00;;;;;;;0.38;0.30;;;6.80;97.40;;;;;;2075065;28;20177;-65
2021/11/02 10:31:13;;;;;;;0.47;0.40;;;6.80;97.00;;;;;;2074836;28;20223;-65
2021/11/02 10:32:16;;;;;;;0.30;0.28;;;7.00;98.50;;;;;;2083077;28;20393;-65
2021/11/02 10:33:22;;;;;;;0.70;0.40;;;7.00;95.80;;;;;;2083030;28;20593;-65
2021/11/02 10:35:22;;;;;;;2.25;0.52;;;7.00;95.60;;;;;;2075526;28;20183;-65
2021/11/02 10:36:36;;;;;;;0.25;0.25;;;7.10;95.00;;;;;;2074969;28;20201;-65
2021/11/02 10:38:06;;;;;;;0.22;0.20;;;6.90;94.90;;;;;;2075486;28;20191;-65
2021/11/02 10:39:22;;;;;;;0.57;0.40;;;7.00;94.30;;;;;;2083234;28;20224;-65
2021/11/02 10:40:38;;;;;;;0.30;0.30;;;7.20;95.40;;;;;;2080727;28;20234;-65
2021/11/02 10:41:49;;;;;;;0.30;0.30;;;7.30;95.80;;;;;;2074865;28;20174;-65
2021/11/02 10:43:38;;;;;;;0.68;0.50;;;7.60;97.90;;;;;;2074837;28;20193;-65
2021/11/02 10:44:47;;;;;;;0.22;0.22;;;7.70;95.70;;;;;;2074540;28;20259;-65
2021/11/02 10:45:56;;;;;;;0.30;0.30;;;7.80;94.70;;;;;;2075615;28;20166;-65
2021/11/02 10:47:09;;;;;;;0.30;0.30;;;7.80;93.20;;;;;;2075344;28;20597;-65
2021/11/02 10:48:11;;;;;;;0.68;0.50;;;7.60;92.50;;;;;;2075610;28;20169;-65
2021/11/02 10:49:36;;;;;;;0.60;0.60;;;7.50;91.90;;;;;;2075358;28;20175;-65
2021/11/02 10:50:45;;;;;;;0.60;0.50;;;7.30;93.30;;;;;;2075332;28;20165;-65
2021/11/02 10:52:04;;;;;;;0.43;0.40;;;7.20;91.50;;;;;;2074970;28;20167;-65
2021/11/02 10:53:07;;;;;;;0.77;0.40;;;7.10;92.90;;;;;;2075335;28;20263;-65
2021/11/02 10:54:10;;;;;;;1.15;0.50;;;7.00;92.70;;;;;;2075336;28;20177;-65
2021/11/02 10:55:50;;;;;;;1.30;0.80;;;7.00;92.10;;;;;;2075396;28;20189;-64
2021/11/02 10:57:05;;;;;;;2.25;0.70;;;7.10;93.10;;;;;;2075362;28;20166;-65
2021/11/02 10:58:16;;;;;;;0.88;0.52;;;7.30;94.00;;;;;;2075633;28;20167;-65